Time;durP1;ratioP1;P1;durP2;ratioP2;P2;SDS_P1;SDS_P2;PMS_P1;PMS_P2;Temp;Humidity;BMP_temperature;BMP_pressure;BME280_temperature;BME280_humidity;BME280_pressure;Samples;Min_cycle;Max_cycle;Signal;HPM_P1;HPM_P2
2022/06/19 00:00:11;;;;;;;4.87;3.07;;;20.60;92.30;;;;;;5118791;28;20455;-62
2022/06/19 00:02:40;;;;;;;3.80;3.20;;;20.60;92.40;;;;;;5118160;28;20471;-62
2022/06/19 00:05:09;;;;;;;4.03;2.67;;;20.60;92.40;;;;;;5117173;28;20538;-62
2022/06/19 00:07:38;;;;;;;3.20;2.53;;;20.60;92.60;;;;;;5115014;28;20541;-61
2022/06/19 00:10:06;;;;;;;4.30;2.70;;;20.50;92.50;;;;;;5114626;28;20471;-61
2022/06/19 00:12:34;;;;;;;3.23;2.77;;;20.50;92.60;;;;;;5114665;28;20502;-61
2022/06/19 00:15:01;;;;;;;5.70;2.80;;;20.50;92.70;;;;;;5113549;28;20472;-61
2022/06/19 00:17:28;;;;;;;3.70;3.20;;;20.50;92.80;;;;;;5115715;28;20555;-62
2022/06/19 00:19:56;;;;;;;4.30;3.37;;;20.50;92.90;;;;;;5119889;28;20512;-61
2022/06/19 00:22:23;;;;;;;5.70;3.00;;;20.40;93.00;;;;;;5116124;28;20443;-61
2022/06/19 00:24:52;;;;;;;4.83;2.80;;;20.40;93.20;;;;;;5114942;28;20444;-61
2022/06/19 00:27:19;;;;;;;3.10;2.80;;;20.30;93.30;;;;;;5117860;28;20459;-62
2022/06/19 00:29:46;;;;;;;3.57;3.10;;;20.20;93.50;;;;;;5117412;28;20500;-61
2022/06/19 00:32:14;;;;;;;4.80;2.90;;;20.20;93.70;;;;;;5117678;28;20546;-61
2022/06/19 00:34:41;;;;;;;4.60;3.53;;;20.10;93.90;;;;;;5117207;28;20474;-61
2022/06/19 00:37:08;;;;;;;3.90;3.20;;;20.10;94.00;;;;;;5117712;28;20466;-61
2022/06/19 00:39:39;;;;;;;3.57;3.27;;;20.00;94.10;;;;;;5117551;28;20853;-62
2022/06/19 00:42:10;;;;;;;4.10;2.90;;;20.00;94.30;;;;;;5117904;28;20776;-62
2022/06/19 00:44:37;;;;;;;4.60;2.93;;;20.00;94.40;;;;;;5117245;28;20438;-61
2022/06/19 00:47:10;;;;;;;3.60;2.73;;;20.00;94.60;;;;;;5117222;28;20467;-62
2022/06/19 00:49:39;;;;;;;5.70;2.87;;;20.00;94.70;;;;;;5117487;28;20510;-61
2022/06/19 00:52:09;;;;;;;4.17;3.33;;;20.00;94.80;;;;;;5117852;28;20439;-61
2022/06/19 00:54:42;;;;;;;3.43;2.80;;;19.90;94.90;;;;;;5117414;28;21073;-61
2022/06/19 00:57:13;;;;;;;3.90;3.03;;;19.90;95.00;;;;;;5117374;28;20455;-61
2022/06/19 00:59:43;;;;;;;4.27;2.97;;;19.80;95.10;;;;;;5116648;28;20486;-61
2022/06/19 01:02:12;;;;;;;4.30;3.17;;;19.80;95.30;;;;;;5116903;28;20964;-61
2022/06/19 01:04:44;;;;;;;4.10;2.73;;;19.70;95.50;;;;;;5116979;28;20524;-61
2022/06/19 01:07:13;;;;;;;3.20;2.90;;;19.70;95.60;;;;;;5116751;28;20474;-61
2022/06/19 01:09:40;;;;;;;8.20;3.23;;;19.70;95.80;;;;;;5116819;28;20548;-61
2022/06/19 01:12:09;;;;;;;4.97;3.50;;;19.60;95.90;;;;;;5116536;28;20499;-61
2022/06/19 01:14:40;;;;;;;3.83;3.43;;;19.60;96.10;;;;;;5116507;28;21007;-61
2022/06/19 01:17:08;;;;;;;6.23;2.97;;;19.60;96.20;;;;;;5116699;28;20962;-61
2022/06/19 01:19:41;;;;;;;4.13;3.53;;;19.60;96.30;;;;;;5116393;28;20438;-62
2022/06/19 01:22:17;;;;;;;3.13;2.50;;;19.50;96.40;;;;;;5116818;28;20501;-61
2022/06/19 01:25:02;;;;;;;3.50;3.00;;;19.50;96.60;;;;;;5116408;28;20470;-62
2022/06/19 01:30:17;;;;;;;3.40;3.10;;;19.40;96.90;;;;;;5116489;28;20406;-62
2022/06/19 01:32:49;;;;;;;4.13;3.40;;;19.30;97.00;;;;;;5116638;27;20505;-62
2022/06/19 01:35:17;;;;;;;3.07;2.70;;;19.30;97.20;;;;;;5116545;28;20541;-63
2022/06/19 01:37:46;;;;;;;3.43;3.13;;;19.30;97.40;;;;;;5115474;28;20500;-62
2022/06/19 01:40:19;;;;;;;3.20;2.90;;;19.20;97.40;;;;;;5116197;28;20449;-62
2022/06/19 01:42:47;;;;;;;3.07;2.77;;;19.20;97.60;;;;;;5116123;28;20430;-63
2022/06/19 01:45:15;;;;;;;3.20;2.90;;;19.10;97.60;;;;;;5116280;28;20489;-61
2022/06/19 01:47:43;;;;;;;4.63;2.80;;;19.10;97.70;;;;;;5115874;28;20541;-62
2022/06/19 01:50:13;;;;;;;3.23;3.03;;;19.00;97.80;;;;;;5115941;28;20498;-61
2022/06/19 01:52:41;;;;;;;2.97;2.67;;;19.00;98.00;;;;;;5116024;28;20528;-61
2022/06/19 01:55:11;;;;;;;3.10;2.80;;;18.90;98.10;;;;;;5116077;28;20546;-61
2022/06/19 01:57:42;;;;;;;3.90;3.03;;;18.90;98.30;;;;;;5115933;28;20540;-62
2022/06/19 02:00:13;;;;;;;3.17;2.63;;;18.80;98.30;;;;;;5115871;28;20933;-61
2022/06/19 02:02:44;;;;;;;3.40;2.97;;;18.80;98.50;;;;;;5115829;28;20490;-62
2022/06/19 02:05:11;;;;;;;3.47;2.57;;;18.80;98.60;;;;;;5115859;28;20431;-61
2022/06/19 02:07:39;;;;;;;4.23;2.80;;;18.70;98.70;;;;;;5116301;28;20892;-62
2022/06/19 02:10:08;;;;;;;4.07;2.80;;;18.70;98.80;;;;;;5117060;28;20441;-62
2022/06/19 02:12:36;;;;;;;3.90;3.10;;;18.70;98.90;;;;;;5116441;28;20437;-62
2022/06/19 02:15:10;;;;;;;4.23;2.80;;;18.60;99.00;;;;;;5116732;28;20538;-61
2022/06/19 02:17:42;;;;;;;4.77;3.13;;;18.60;99.10;;;;;;5115783;28;20465;-62
2022/06/19 02:20:11;;;;;;;2.80;2.50;;;18.50;99.10;;;;;;5115863;28;20430;-61
2022/06/19 02:22:39;;;;;;;3.33;2.67;;;18.50;99.20;;;;;;5115488;28;20565;-62
2022/06/19 02:25:07;;;;;;;3.10;2.60;;;18.50;99.30;;;;;;5115762;28;20833;-61
2022/06/19 02:27:36;;;;;;;5.00;3.00;;;18.40;99.40;;;;;;5115607;28;20561;-62
2022/06/19 02:30:06;;;;;;;2.90;2.50;;;18.40;99.50;;;;;;5115827;28;20509;-62
2022/06/19 02:32:38;;;;;;;3.60;2.73;;;18.30;99.60;;;;;;5115511;28;20858;-62
2022/06/19 02:35:07;;;;;;;5.40;2.83;;;18.30;99.80;;;;;;5115238;28;20984;-61
2022/06/19 02:37:41;;;;;;;5.83;2.70;;;18.30;99.80;;;;;;5115296;28;20453;-61
2022/06/19 02:40:19;;;;;;;5.07;2.60;;;18.30;99.80;;;;;;5115068;28;20847;-60
2022/06/19 02:42:48;;;;;;;3.83;2.60;;;18.30;99.80;;;;;;5115334;28;20430;-61
2022/06/19 02:45:19;;;;;;;2.60;2.40;;;18.30;99.90;;;;;;5115011;28;20441;-61
2022/06/19 02:47:48;;;;;;;2.83;2.63;;;18.20;99.80;;;;;;5114653;28;21050;-61
2022/06/19 02:50:18;;;;;;;3.93;2.47;;;18.20;99.80;;;;;;5114777;28;20445;-62
2022/06/19 02:52:46;;;;;;;2.60;2.40;;;18.20;99.80;;;;;;5115141;28;20445;-62
2022/06/19 02:55:14;;;;;;;3.93;2.33;;;18.20;99.80;;;;;;5115235;28;20508;-62
2022/06/19 02:57:42;;;;;;;2.30;2.13;;;18.20;99.80;;;;;;5115025;28;20994;-62
2022/06/19 03:00:15;;;;;;;3.23;2.30;;;18.10;99.70;;;;;;5114953;28;20445;-62
2022/06/19 03:02:44;;;;;;;4.00;2.50;;;18.10;99.80;;;;;;5114852;28;20436;-62
2022/06/19 03:05:19;;;;;;;3.80;2.53;;;18.10;99.90;;;;;;5114648;28;20536;-61
2022/06/19 03:07:46;;;;;;;3.93;2.13;;;18.00;99.90;;;;;;5115861;28;20477;-62
2022/06/19 03:10:14;;;;;;;2.60;2.40;;;18.00;99.90;;;;;;5114984;28;20437;-62
2022/06/19 03:12:41;;;;;;;4.27;2.00;;;18.00;99.90;;;;;;5114472;28;20554;-62
2022/06/19 03:15:10;;;;;;;2.53;2.00;;;18.00;99.90;;;;;;5114298;28;21006;-62
2022/06/19 03:17:37;;;;;;;3.50;2.27;;;18.00;99.90;;;;;;5114456;28;20604;-62
2022/06/19 03:20:07;;;;;;;2.23;2.13;;;18.00;99.90;;;;;;5114278;28;20543;-62
2022/06/19 03:22:35;;;;;;;2.30;2.10;;;18.00;99.80;;;;;;5114542;28;20425;-62
2022/06/19 03:25:02;;;;;;;2.37;2.17;;;18.00;99.70;;;;;;5114410;28;20497;-61
2022/06/19 03:27:29;;;;;;;3.00;2.40;;;17.90;99.70;;;;;;5114040;28;20590;-62
2022/06/19 03:29:56;;;;;;;2.87;2.33;;;18.00;99.70;;;;;;5113960;28;20445;-61
2022/06/19 03:32:24;;;;;;;2.27;2.07;;;18.00;99.70;;;;;;5114524;28;20453;-62
2022/06/19 03:34:51;;;;;;;3.10;2.30;;;17.90;99.90;;;;;;5114444;28;20949;-62
2022/06/19 03:37:20;;;;;;;3.30;2.17;;;17.90;99.70;;;;;;5114183;28;20465;-61
2022/06/19 03:39:47;;;;;;;2.20;2.00;;;17.90;99.70;;;;;;5114210;28;20449;-61
2022/06/19 03:42:16;;;;;;;3.20;2.30;;;17.90;99.80;;;;;;5114436;28;20478;-61
2022/06/19 03:44:43;;;;;;;3.43;2.10;;;17.90;99.80;;;;;;5113968;28;20444;-61
2022/06/19 03:47:15;;;;;;;2.23;2.03;;;17.90;99.70;;;;;;5114018;28;20568;-62
2022/06/19 03:49:42;;;;;;;3.30;2.30;;;17.90;99.70;;;;;;5113977;28;20432;-61
2022/06/19 03:52:09;;;;;;;2.47;2.27;;;18.00;99.60;;;;;;5113711;28;20532;-62
2022/06/19 03:54:38;;;;;;;2.53;2.10;;;18.10;99.50;;;;;;5114134;28;20518;-62
2022/06/19 03:57:06;;;;;;;2.50;1.70;;;18.10;99.20;;;;;;5113962;28;21005;-62
2022/06/19 03:59:33;;;;;;;3.30;2.10;;;18.30;99.10;;;;;;5113827;28;20445;-62
2022/06/19 04:02:02;;;;;;;3.20;2.63;;;18.40;98.90;;;;;;5114167;28;20445;-62
2022/06/19 04:04:29;;;;;;;2.30;1.90;;;18.50;98.60;;;;;;5114115;28;20453;-62
2022/06/19 04:09:58;;;;;;;3.53;1.90;;;18.80;97.60;;;;;;5132154;27;20599;-63
2022/06/19 04:12:26;;;;;;;2.20;1.93;;;18.90;97.40;;;;;;5132276;27;20429;-62
2022/06/19 04:14:53;;;;;;;2.53;1.97;;;19.00;97.00;;;;;;5132275;27;20496;-62
2022/06/19 04:17:20;;;;;;;4.10;2.57;;;19.10;96.80;;;;;;5131738;27;20875;-63
2022/06/19 04:19:48;;;;;;;2.27;2.00;;;19.20;96.60;;;;;;5131699;27;20437;-64
2022/06/19 04:22:16;;;;;;;3.70;1.90;;;19.30;96.40;;;;;;5131281;27;20963;-62
2022/06/19 04:24:43;;;;;;;2.30;2.10;;;19.40;96.10;;;;;;5131686;27;20498;-62
2022/06/19 04:27:12;;;;;;;2.63;2.03;;;19.50;95.80;;;;;;5131969;27;20465;-62
2022/06/19 04:29:39;;;;;;;1.80;1.70;;;19.60;95.50;;;;;;5131767;27;20550;-62
2022/06/19 04:32:07;;;;;;;1.90;1.70;;;19.70;95.10;;;;;;5134505;27;20447;-62
2022/06/19 04:34:34;;;;;;;2.43;2.23;;;19.90;94.80;;;;;;5139766;27;20439;-63
2022/06/19 04:37:01;;;;;;;3.20;2.23;;;20.00;94.40;;;;;;5138178;27;20469;-62
2022/06/19 04:39:29;;;;;;;3.43;1.87;;;20.10;93.80;;;;;;5138288;27;20928;-63
2022/06/19 04:41:56;;;;;;;1.97;1.77;;;20.20;93.50;;;;;;5139546;27;20464;-63
2022/06/19 04:44:25;;;;;;;2.00;1.67;;;20.20;93.30;;;;;;5139918;27;20455;-63
2022/06/19 04:46:52;;;;;;;1.90;1.70;;;20.30;93.00;;;;;;5140126;27;20913;-63
2022/06/19 04:49:19;;;;;;;4.20;2.00;;;20.50;92.50;;;;;;5148285;27;20476;-63
2022/06/19 04:51:47;;;;;;;2.03;1.83;;;20.60;92.10;;;;;;5151586;27;20459;-62
2022/06/19 04:54:14;;;;;;;3.33;2.20;;;20.70;91.70;;;;;;5150527;27;20475;-62
2022/06/19 04:56:42;;;;;;;2.97;1.87;;;20.80;91.20;;;;;;5145708;27;20491;-62
2022/06/19 04:59:10;;;;;;;2.43;1.40;;;20.80;90.70;;;;;;5133955;27;20443;-62
2022/06/19 05:01:40;;;;;;;2.70;1.63;;;20.80;90.40;;;;;;5135869;27;20477;-62
2022/06/19 05:04:10;;;;;;;2.00;1.80;;;20.90;90.10;;;;;;5138519;27;20901;-62
2022/06/19 05:06:38;;;;;;;3.43;2.27;;;21.00;89.70;;;;;;5135976;27;20489;-62
2022/06/19 05:09:05;;;;;;;3.20;2.17;;;21.00;88.60;;;;;;5133948;27;20579;-63
2022/06/19 05:11:33;;;;;;;3.70;2.77;;;21.00;87.30;;;;;;5131525;27;20439;-63
2022/06/19 05:14:01;;;;;;;1.83;1.73;;;20.80;87.10;;;;;;5131630;27;20500;-62
2022/06/19 05:16:28;;;;;;;2.77;1.50;;;20.80;87.50;;;;;;5131711;27;20460;-63
2022/06/19 05:18:58;;;;;;;2.30;1.60;;;20.90;87.40;;;;;;5131699;27;20451;-62
2022/06/19 05:21:26;;;;;;;3.60;1.60;;;21.00;85.90;;;;;;5117277;28;20445;-62
2022/06/19 05:23:55;;;;;;;5.33;1.43;;;21.00;85.50;;;;;;5117927;28;20444;-63
2022/06/19 05:26:26;;;;;;;2.87;1.43;;;21.00;84.90;;;;;;5118224;28;20490;-63
2022/06/19 05:28:54;;;;;;;1.50;1.40;;;21.00;84.20;;;;;;5116988;28;21039;-62
2022/06/19 05:31:21;;;;;;;2.47;1.83;;;21.00;83.70;;;;;;5116925;28;20448;-62
2022/06/19 05:33:49;;;;;;;4.23;2.00;;;21.00;83.70;;;;;;5117005;28;20924;-62
2022/06/19 05:36:19;;;;;;;3.33;2.17;;;21.10;82.80;;;;;;5116384;27;20452;-62
2022/06/19 05:38:46;;;;;;;1.90;1.50;;;21.20;81.60;;;;;;5117880;28;20939;-62
2022/06/19 05:41:14;;;;;;;5.80;1.60;;;21.30;80.10;;;;;;5117029;28;20438;-62
2022/06/19 05:43:41;;;;;;;3.40;1.60;;;21.50;79.30;;;;;;5116650;28;20445;-64
2022/06/19 05:46:14;;;;;;;3.90;1.63;;;21.50;77.80;;;;;;5117435;28;20442;-62
2022/06/19 05:48:41;;;;;;;2.93;1.77;;;21.50;77.30;;;;;;5116671;28;20465;-62
2022/06/19 05:51:12;;;;;;;4.53;1.90;;;21.40;76.30;;;;;;5116479;28;20463;-60
2022/06/19 05:53:42;;;;;;;2.37;1.70;;;21.30;75.60;;;;;;5117499;28;20533;-62
2022/06/19 05:56:10;;;;;;;5.23;2.30;;;21.20;74.50;;;;;;5116506;28;20434;-63
2022/06/19 05:58:38;;;;;;;2.63;1.73;;;21.00;74.70;;;;;;5116578;28;20520;-62
2022/06/19 06:01:06;;;;;;;3.07;2.07;;;20.90;75.50;;;;;;5116844;28;20498;-62
2022/06/19 06:03:33;;;;;;;7.03;1.70;;;21.00;74.80;;;;;;5115639;28;20437;-62
2022/06/19 06:06:01;;;;;;;4.10;2.30;;;21.00;74.50;;;;;;5115480;28;20519;-63
2022/06/19 06:08:29;;;;;;;3.77;2.30;;;21.00;73.30;;;;;;5115760;28;20477;-62
2022/06/19 06:10:58;;;;;;;4.43;1.80;;;21.00;72.00;;;;;;5116110;28;20446;-62
2022/06/19 06:13:29;;;;;;;3.83;1.90;;;20.80;70.00;;;;;;5115564;27;20440;-62
2022/06/19 06:15:57;;;;;;;4.80;2.30;;;20.60;69.50;;;;;;5115787;28;20433;-62
2022/06/19 06:18:24;;;;;;;6.17;2.57;;;20.50;69.20;;;;;;5120431;27;20510;-62
2022/06/19 06:20:56;;;;;;;4.70;2.10;;;20.30;67.30;;;;;;5122097;28;20445;-62
2022/06/19 06:23:23;;;;;;;6.00;2.33;;;20.20;68.20;;;;;;5122486;28;20786;-62
2022/06/19 06:26:00;;;;;;;5.33;2.43;;;20.30;67.40;;;;;;5119300;28;20448;-63
2022/06/19 06:28:28;;;;;;;5.63;2.23;;;20.20;66.50;;;;;;5115329;28;20514;-62
2022/06/19 06:30:55;;;;;;;5.00;3.53;;;20.30;66.00;;;;;;5114985;28;20853;-62
2022/06/19 06:33:23;;;;;;;4.27;2.03;;;20.30;65.00;;;;;;5114831;28;20543;-63
2022/06/19 06:35:51;;;;;;;4.40;2.07;;;20.10;63.60;;;;;;5116677;28;20781;-62
2022/06/19 06:38:18;;;;;;;8.30;2.00;;;20.00;63.20;;;;;;5115072;28;20457;-62
2022/06/19 06:40:46;;;;;;;5.07;1.87;;;19.90;62.60;;;;;;5115212;27;20443;-62
2022/06/19 06:43:15;;;;;;;8.03;2.30;;;19.80;61.90;;;;;;5114948;28;20498;-62
2022/06/19 06:45:42;;;;;;;9.90;2.50;;;19.70;61.80;;;;;;5114631;28;20499;-62
2022/06/19 06:48:10;;;;;;;7.63;2.20;;;19.60;61.50;;;;;;5114964;28;20983;-63
2022/06/19 06:50:38;;;;;;;4.40;2.30;;;19.50;61.50;;;;;;5114929;28;20538;-63
2022/06/19 06:53:06;;;;;;;6.80;2.23;;;19.50;61.70;;;;;;5114522;28;20932;-62
2022/06/19 06:55:33;;;;;;;7.10;2.60;;;19.60;61.60;;;;;;5114783;28;20448;-62
2022/06/19 06:58:01;;;;;;;9.00;2.27;;;19.60;61.20;;;;;;5115046;28;20467;-63
2022/06/19 07:00:29;;;;;;;6.37;2.20;;;19.70;61.00;;;;;;5114783;28;20538;-63
2022/06/19 07:02:58;;;;;;;11.20;2.57;;;19.70;60.70;;;;;;5114434;28;20864;-62
2022/06/19 07:05:25;;;;;;;5.20;2.67;;;19.80;60.60;;;;;;5115224;28;20850;-62
2022/06/19 07:07:53;;;;;;;6.13;2.00;;;19.90;60.40;;;;;;5114292;28;20487;-62
2022/06/19 07:10:20;;;;;;;7.63;2.40;;;20.20;60.00;;;;;;5116586;28;20504;-62
2022/06/19 07:12:48;;;;;;;3.47;2.00;;;20.30;59.20;;;;;;5116525;28;20486;-62
2022/06/19 07:15:16;;;;;;;5.37;2.10;;;20.30;59.00;;;;;;5114308;28;20441;-63
2022/06/19 07:17:44;;;;;;;6.63;2.40;;;20.20;58.90;;;;;;5114309;28;20469;-62
2022/06/19 07:20:12;;;;;;;5.33;2.00;;;20.20;59.10;;;;;;5114012;28;20792;-63
2022/06/19 07:22:40;;;;;;;4.43;2.90;;;20.30;59.10;;;;;;5114500;28;20457;-63
2022/06/19 07:25:08;;;;;;;6.77;2.13;;;20.40;58.90;;;;;;5114484;28;20448;-62
2022/06/19 07:27:35;;;;;;;4.50;2.40;;;20.40;58.70;;;;;;5114224;28;20522;-62
2022/06/19 07:30:03;;;;;;;4.97;2.40;;;20.40;58.60;;;;;;5113696;28;20529;-62
2022/06/19 07:32:31;;;;;;;5.13;2.40;;;20.50;58.60;;;;;;5113696;28;20485;-62
2022/06/19 07:35:00;;;;;;;6.73;2.43;;;20.70;58.50;;;;;;5113765;28;20544;-62
2022/06/19 07:37:27;;;;;;;7.93;2.33;;;20.90;58.40;;;;;;5113812;28;21036;-62
2022/06/19 07:39:55;;;;;;;6.50;2.27;;;21.00;58.10;;;;;;5114227;28;20437;-62
2022/06/19 07:42:22;;;;;;;4.93;2.70;;;21.00;57.80;;;;;;5113337;28;20446;-62
2022/06/19 07:44:50;;;;;;;5.90;2.50;;;21.10;57.90;;;;;;5113497;28;20445;-62
2022/06/19 07:50:13;;;;;;;7.50;2.17;;;21.20;57.60;;;;;;5113499;28;20460;-62
2022/06/19 07:52:43;;;;;;;8.93;2.53;;;21.20;57.50;;;;;;5113520;28;20433;-60
2022/06/19 07:55:12;;;;;;;5.77;2.40;;;21.20;57.60;;;;;;5113421;28;20529;-62
2022/06/19 07:57:39;;;;;;;5.03;3.20;;;21.20;57.70;;;;;;5113580;28;20831;-63
2022/06/19 08:00:09;;;;;;;6.80;2.40;;;21.30;57.80;;;;;;5113987;28;20439;-62
2022/06/19 08:02:37;;;;;;;9.23;2.70;;;21.40;57.40;;;;;;5113888;28;20448;-63
2022/06/19 08:05:08;;;;;;;8.47;2.77;;;21.60;57.40;;;;;;5113587;28;20446;-63
2022/06/19 08:07:35;;;;;;;4.90;3.10;;;21.80;57.00;;;;;;5113546;28;20813;-62
2022/06/19 08:10:03;;;;;;;9.97;3.73;;;22.10;56.70;;;;;;5114158;28;20468;-63
2022/06/19 08:12:30;;;;;;;7.17;2.67;;;22.30;56.40;;;;;;5113540;28;20496;-63
2022/06/19 08:14:57;;;;;;;7.60;3.67;;;22.60;56.20;;;;;;5114026;28;20448;-59
2022/06/19 08:17:25;;;;;;;5.47;3.10;;;22.70;55.80;;;;;;5113904;28;20490;-63
2022/06/19 08:19:52;;;;;;;10.87;3.13;;;22.80;55.70;;;;;;5113513;28;20494;-62
2022/06/19 08:22:21;;;;;;;7.97;2.70;;;22.90;55.50;;;;;;5113572;28;20463;-63
2022/06/19 08:24:48;;;;;;;7.17;3.20;;;23.00;55.90;;;;;;5114245;28;20457;-61
2022/06/19 08:27:16;;;;;;;6.43;2.30;;;23.10;55.20;;;;;;5113227;28;20461;-62
2022/06/19 08:29:43;;;;;;;6.67;3.20;;;23.10;55.10;;;;;;5113367;28;20473;-62
2022/06/19 08:32:10;;;;;;;6.10;3.00;;;23.10;55.20;;;;;;5113185;28;20444;-62
2022/06/19 08:34:37;;;;;;;9.30;3.60;;;23.20;55.10;;;;;;5113487;28;20531;-63
2022/06/19 08:37:07;;;;;;;10.53;3.27;;;23.30;54.90;;;;;;5113255;28;20853;-62
2022/06/19 08:39:37;;;;;;;6.00;3.00;;;23.20;54.60;;;;;;5113116;28;20438;-63
2022/06/19 08:42:29;;;;;;;8.07;3.40;;;23.20;54.60;;;;;;5113112;28;20444;-62
2022/06/19 08:45:31;;;;;;;8.63;3.07;;;23.20;54.70;;;;;;5113473;28;20491;-60
2022/06/19 08:48:26;;;;;;;4.47;2.70;;;23.40;54.50;;;;;;5113190;28;20803;-62
2022/06/19 08:51:02;;;;;;;10.40;3.20;;;23.60;54.40;;;;;;5112792;28;20522;-63
2022/06/19 08:53:41;;;;;;;4.80;2.70;;;23.80;53.80;;;;;;5112948;28;20426;-62
2022/06/19 08:56:14;;;;;;;6.67;2.97;;;23.90;53.40;;;;;;5115621;28;20424;-63
2022/06/19 08:58:46;;;;;;;8.70;3.73;;;23.90;53.50;;;;;;5117107;28;20437;-62
2022/06/19 09:01:23;;;;;;;9.97;3.33;;;23.80;53.40;;;;;;5132031;28;20486;-62
2022/06/19 09:06:52;;;;;;;5.97;3.00;;;23.60;54.10;;;;;;5150592;22;20444;-57
2022/06/19 09:09:38;;;;;;;7.47;3.10;;;23.70;54.30;;;;;;5055881;28;20479;-59
2022/06/19 09:12:31;;;;;;;6.83;3.10;;;23.60;53.90;;;;;;5056558;28;20448;-60
2022/06/19 09:15:06;;;;;;;6.27;2.80;;;23.60;54.40;;;;;;5055935;28;20486;-59
2022/06/19 09:17:47;;;;;;;8.23;3.27;;;23.70;54.30;;;;;;5056126;28;20463;-60
2022/06/19 09:20:27;;;;;;;7.93;3.73;;;23.80;54.20;;;;;;5055778;28;20428;-61
2022/06/19 09:23:27;;;;;;;7.47;2.97;;;23.70;54.30;;;;;;5056249;28;20432;-59
2022/06/19 09:25:59;;;;;;;12.30;3.70;;;23.60;54.50;;;;;;5040702;28;20460;-59
2022/06/19 09:28:35;;;;;;;11.40;3.90;;;23.70;54.60;;;;;;5055438;28;20552;-60
2022/06/19 09:31:09;;;;;;;13.77;3.73;;;23.80;54.60;;;;;;5055863;28;20967;-59
2022/06/19 09:33:44;;;;;;;10.63;3.73;;;23.90;54.50;;;;;;5055900;28;20485;-60
2022/06/19 09:36:19;;;;;;;11.73;4.00;;;24.00;54.20;;;;;;5055359;28;20485;-60
2022/06/19 09:38:58;;;;;;;9.83;3.90;;;24.00;54.10;;;;;;5055533;28;20558;-60
2022/06/19 09:41:32;;;;;;;5.83;2.97;;;23.90;53.90;;;;;;5055679;28;20420;-59
2022/06/19 09:44:08;;;;;;;7.00;3.00;;;24.00;53.70;;;;;;5058294;28;20443;-59
2022/06/19 09:46:43;;;;;;;9.67;3.50;;;24.10;53.20;;;;;;5068850;28;20424;-60
2022/06/19 09:49:16;;;;;;;6.03;2.90;;;24.00;52.70;;;;;;5057980;28;20438;-59
2022/06/19 09:51:52;;;;;;;10.93;2.83;;;24.00;52.20;;;;;;5055818;28;20523;-59
2022/06/19 09:54:24;;;;;;;9.53;2.60;;;24.00;52.00;;;;;;5055563;28;20494;-60
2022/06/19 09:56:56;;;;;;;6.83;3.20;;;24.10;51.30;;;;;;5055320;28;20893;-59
2022/06/19 09:59:28;;;;;;;9.90;3.40;;;24.00;51.00;;;;;;5055333;28;20947;-59
2022/06/19 10:01:58;;;;;;;11.30;3.00;;;24.00;50.90;;;;;;5055354;28;20852;-60
2022/06/19 10:04:35;;;;;;;7.70;2.73;;;24.20;50.80;;;;;;5055125;28;20551;-60
2022/06/19 10:07:08;;;;;;;4.87;2.50;;;24.40;50.20;;;;;;5054594;28;20541;-59
2022/06/19 10:09:40;;;;;;;7.53;2.70;;;24.50;49.50;;;;;;5055222;28;20527;-59
2022/06/19 10:12:15;;;;;;;6.70;2.83;;;24.50;49.00;;;;;;5054969;28;20523;-60
2022/06/19 10:14:47;;;;;;;9.47;3.17;;;24.40;48.40;;;;;;5055049;28;20489;-60
2022/06/19 10:17:20;;;;;;;7.47;2.83;;;24.20;48.60;;;;;;5055058;28;20814;-60
2022/06/19 10:19:51;;;;;;;6.03;3.03;;;24.10;48.70;;;;;;5055161;28;20463;-60
2022/06/19 10:22:35;;;;;;;7.70;3.00;;;24.00;48.90;;;;;;5054571;28;20928;-59
2022/06/19 10:25:15;;;;;;;9.30;3.40;;;24.10;49.20;;;;;;5054634;28;20903;-59
2022/06/19 10:27:52;;;;;;;6.97;3.00;;;24.10;49.00;;;;;;5054971;28;21029;-59
2022/06/19 10:30:26;;;;;;;9.33;2.90;;;24.10;48.90;;;;;;5054655;28;20537;-60
2022/06/19 10:33:18;;;;;;;7.30;3.00;;;23.90;49.10;;;;;;5054936;28;20519;-60
2022/06/19 10:35:52;;;;;;;11.17;3.30;;;24.00;49.40;;;;;;5054740;28;20862;-60
2022/06/19 10:38:44;;;;;;;10.93;3.80;;;23.90;49.40;;;;;;5054588;28;20537;-60
2022/06/19 10:44:13;;;;;;;8.77;3.23;;;24.00;49.80;;;;;;5053259;28;20428;-60
2022/06/19 10:46:42;;;;;;;9.10;3.30;;;24.20;49.70;;;;;;5053927;28;20420;-60
2022/06/19 10:49:17;;;;;;;7.63;3.03;;;24.40;49.70;;;;;;5053995;28;20448;-60
2022/06/19 10:51:56;;;;;;;9.90;4.03;;;24.50;49.60;;;;;;5053765;28;20459;-60
2022/06/19 10:54:37;;;;;;;11.40;3.87;;;24.70;49.40;;;;;;5053883;28;20482;-60
2022/06/19 10:57:13;;;;;;;8.33;2.87;;;25.00;49.10;;;;;;5054083;28;20874;-60
2022/06/19 10:59:40;;;;;;;8.40;3.33;;;25.00;48.80;;;;;;5053902;28;20837;-60
2022/06/19 11:05:11;;;;;;;8.57;3.20;;;25.10;48.90;;;;;;5053750;28;20412;-59
2022/06/19 11:07:39;;;;;;;7.23;2.80;;;25.30;48.60;;;;;;5053499;28;20547;-57
2022/06/19 11:10:14;;;;;;;7.10;3.23;;;25.40;48.30;;;;;;5053747;28;20506;-59
2022/06/19 11:12:44;;;;;;;5.53;3.27;;;25.50;48.20;;;;;;5053621;28;20903;-60
2022/06/19 11:15:20;;;;;;;9.17;3.37;;;25.60;48.10;;;;;;5054495;28;20543;-59
2022/06/19 11:17:49;;;;;;;8.30;2.90;;;25.70;47.70;;;;;;5053272;28;20499;-59
2022/06/19 11:20:24;;;;;;;7.03;3.10;;;25.90;47.20;;;;;;5053356;28;20536;-59
2022/06/19 11:23:00;;;;;;;5.90;2.60;;;25.80;47.20;;;;;;5053634;28;20438;-59
2022/06/19 11:25:38;;;;;;;10.83;3.60;;;25.90;47.30;;;;;;5053340;28;20432;-61
2022/06/19 11:28:10;;;;;;;6.77;3.40;;;25.90;47.40;;;;;;5053538;28;20533;-60
2022/06/19 11:30:40;;;;;;;6.30;3.10;;;25.90;47.00;;;;;;5053494;28;20502;-60
2022/06/19 11:33:13;;;;;;;6.83;3.60;;;25.70;47.20;;;;;;5053947;28;20509;-59
2022/06/19 11:35:44;;;;;;;8.30;3.90;;;25.40;47.70;;;;;;5053720;28;20854;-59
2022/06/19 11:38:13;;;;;;;9.57;3.20;;;25.30;48.10;;;;;;5053428;28;20522;-59
2022/06/19 11:40:46;;;;;;;6.80;3.27;;;25.40;48.20;;;;;;5053534;28;20855;-60
2022/06/19 11:43:27;;;;;;;6.40;3.53;;;25.50;48.00;;;;;;5053434;28;20440;-60
2022/06/19 11:46:07;;;;;;;7.97;3.80;;;25.50;47.90;;;;;;5052996;28;20464;-60
2022/06/19 11:48:35;;;;;;;8.33;3.80;;;25.60;47.80;;;;;;5053192;28;20522;-60
2022/06/19 11:51:04;;;;;;;6.63;3.60;;;25.90;47.50;;;;;;5053158;28;21010;-59
2022/06/19 11:53:39;;;;;;;7.37;3.10;;;26.20;46.90;;;;;;5052881;28;20505;-60
2022/06/19 11:56:22;;;;;;;9.87;4.10;;;26.60;46.30;;;;;;5053229;28;20440;-60
2022/06/19 11:58:55;;;;;;;8.03;3.60;;;26.90;45.70;;;;;;5053085;28;20558;-60
2022/06/19 12:01:34;;;;;;;11.17;3.23;;;26.90;45.50;;;;;;5052845;28;20424;-60
2022/06/19 12:04:08;;;;;;;7.13;3.10;;;26.80;45.60;;;;;;5053168;28;20459;-60
2022/06/19 12:06:42;;;;;;;9.57;3.90;;;26.60;46.00;;;;;;5052529;28;20803;-60
2022/06/19 12:09:30;;;;;;;6.57;3.70;;;26.60;46.30;;;;;;5053030;28;20431;-60
2022/06/19 12:12:06;;;;;;;7.50;3.63;;;26.60;46.20;;;;;;5052776;28;20459;-60
2022/06/19 12:14:35;;;;;;;9.17;3.73;;;26.60;46.20;;;;;;5053128;28;20515;-60
2022/06/19 12:17:19;;;;;;;8.93;3.40;;;26.80;46.10;;;;;;5052800;28;20464;-60
2022/06/19 12:19:58;;;;;;;9.10;3.50;;;27.10;45.60;;;;;;5052831;28;20464;-60
2022/06/19 12:22:35;;;;;;;7.30;3.83;;;27.70;44.80;;;;;;5053200;28;20927;-60
2022/06/19 12:25:09;;;;;;;5.53;3.10;;;28.10;43.90;;;;;;5053040;28;20789;-60
2022/06/19 12:27:42;;;;;;;6.30;3.17;;;28.40;43.40;;;;;;5052366;28;20495;-60
2022/06/19 12:30:17;;;;;;;5.23;3.30;;;28.70;42.70;;;;;;5054234;28;20523;-60
2022/06/19 12:32:48;;;;;;;6.20;3.87;;;28.80;42.50;;;;;;5057612;28;20424;-60
2022/06/19 12:35:24;;;;;;;6.23;3.73;;;29.00;42.30;;;;;;5056370;28;20482;-60
2022/06/19 12:37:51;;;;;;;7.47;3.20;;;29.00;41.90;;;;;;5056682;28;20562;-59
2022/06/19 12:40:20;;;;;;;7.60;3.23;;;28.70;42.10;;;;;;5056693;28;20451;-60
2022/06/19 12:42:52;;;;;;;6.80;3.77;;;28.10;42.80;;;;;;5056984;28;20452;-59
2022/06/19 12:45:36;;;;;;;6.60;3.20;;;27.50;43.60;;;;;;5057096;28;20466;-60
2022/06/19 12:48:17;;;;;;;8.63;4.03;;;27.10;44.40;;;;;;5056956;28;20452;-61
2022/06/19 12:50:56;;;;;;;8.27;3.40;;;26.70;45.10;;;;;;5056594;28;20879;-59
2022/06/19 12:53:44;;;;;;;6.97;3.20;;;26.50;45.60;;;;;;5056358;28;20883;-60
2022/06/19 12:56:22;;;;;;;11.60;3.80;;;26.50;45.80;;;;;;5056209;28;20435;-60
2022/06/19 12:59:12;;;;;;;9.70;3.00;;;26.70;45.30;;;;;;5056536;28;20463;-59
2022/06/19 13:01:49;;;;;;;8.00;3.60;;;26.70;45.10;;;;;;5056502;28;20856;-59
2022/06/19 13:04:31;;;;;;;4.33;3.47;;;26.70;45.20;;;;;;5057528;28;20817;-59
2022/06/19 13:07:12;;;;;;;8.97;3.50;;;26.70;45.20;;;;;;5057011;28;20476;-60
2022/06/19 13:09:59;;;;;;;9.90;2.73;;;26.60;45.40;;;;;;5056281;28;20847;-60
2022/06/19 13:12:44;;;;;;;7.10;4.10;;;26.50;45.60;;;;;;5056559;28;20537;-58
2022/06/19 13:15:29;;;;;;;6.73;3.43;;;26.60;45.60;;;;;;5056399;28;20519;-59
2022/06/19 13:18:04;;;;;;;6.13;3.23;;;26.70;45.40;;;;;;5056305;28;20492;-60
2022/06/19 13:20:39;;;;;;;9.37;4.27;;;26.50;45.40;;;;;;5056853;28;20891;-60
2022/06/19 13:23:20;;;;;;;5.23;3.17;;;26.50;45.60;;;;;;5056910;28;20953;-60